Wolcott, Connecticut
Current Conditions -  °F | °C
As of 8:53 AM on Thursday 23 Oct 2014 (Local Time) from KMMK Reporting Station
Overcast Overcast  
Wind Chill: 52°   Ceiling: 1800
Heat Index: 52°   Visibility: 10mi
Dew Point: 46°   Wind: 14mph
Humidity: 80%   Direction: 350°N
Pressure: 29.65"   Gusts: 26mph
Location:  41.6°N, 72.98°W
Report Text: KMMK 231253Z AUTO 35012G23KT 10SM OVC018 11/08 A2965 RMK AO2 PK WND 36026/1154 SLP040 T01110078 TSNO
Loading
Personal Weather Stations






























Interactive Weather Map
Tropical Storm Tracking
New forecast layout! Learn more

10-Day Weather Forecast

Advertisements
Track Severe Weather on mobile